sensor_id;sensor_type;location;lat;lon;timestamp;temperature;humidity
18658;DHT22;9458;50.942;5.074;2024-03-02T00:00:14;8.20;99.90
18658;DHT22;9458;50.942;5.074;2024-03-02T00:02:43;8.30;99.90
18658;DHT22;9458;50.942;5.074;2024-03-02T00:05:10;8.30;99.90
18658;DHT22;9458;50.942;5.074;2024-03-02T00:07:37;8.40;99.90
18658;DHT22;9458;50.942;5.074;2024-03-02T00:10:05;8.40;99.90
18658;DHT22;9458;50.942;5.074;2024-03-02T00:12:34;8.40;99.90
18658;DHT22;9458;50.942;5.074;2024-03-02T00:15:01;8.20;99.90
18658;DHT22;9458;50.942;5.074;2024-03-02T00:17:28;8.00;99.90
18658;DHT22;9458;50.942;5.074;2024-03-02T00:19:57;8.00;99.90
18658;DHT22;9458;50.942;5.074;2024-03-02T00:22:24;8.10;99.90
18658;DHT22;9458;50.942;5.074;2024-03-02T00:24:50;8.20;99.90
18658;DHT22;9458;50.942;5.074;2024-03-02T00:27:17;8.10;99.90
18658;DHT22;9458;50.942;5.074;2024-03-02T00:29:44;8.10;99.90
18658;DHT22;9458;50.942;5.074;2024-03-02T00:32:12;8.10;99.90
18658;DHT22;9458;50.942;5.074;2024-03-02T00:34:39;8.20;99.90
18658;DHT22;9458;50.942;5.074;2024-03-02T00:37:07;8.20;99.90
18658;DHT22;9458;50.942;5.074;2024-03-02T00:39:34;8.30;99.90
18658;DHT22;9458;50.942;5.074;2024-03-02T00:42:01;8.40;99.90
18658;DHT22;9458;50.942;5.074;2024-03-02T00:44:28;8.30;99.90
18658;DHT22;9458;50.942;5.074;2024-03-02T00:47:00;8.20;99.90
18658;DHT22;9458;50.942;5.074;2024-03-02T00:49:26;8.20;99.90
18658;DHT22;9458;50.942;5.074;2024-03-02T00:51:54;8.20;99.90
18658;DHT22;9458;50.942;5.074;2024-03-02T00:54:22;8.40;99.90
18658;DHT22;9458;50.942;5.074;2024-03-02T00:56:50;8.50;99.90
18658;DHT22;9458;50.942;5.074;2024-03-02T00:59:16;8.20;99.90
18658;DHT22;9458;50.942;5.074;2024-03-02T01:01:43;8.20;99.90
18658;DHT22;9458;50.942;5.074;2024-03-02T01:04:10;8.30;99.90
18658;DHT22;9458;50.942;5.074;2024-03-02T01:06:37;8.40;99.90
18658;DHT22;9458;50.942;5.074;2024-03-02T01:09:04;8.30;99.90
18658;DHT22;9458;50.942;5.074;2024-03-02T01:11:32;8.10;99.90
18658;DHT22;9458;50.942;5.074;2024-03-02T01:13:59;7.90;99.90
18658;DHT22;9458;50.942;5.074;2024-03-02T01:16:26;7.90;99.90
18658;DHT22;9458;50.942;5.074;2024-03-02T01:18:53;7.90;99.90
18658;DHT22;9458;50.942;5.074;2024-03-02T01:21:20;8.00;99.90
18658;DHT22;9458;50.942;5.074;2024-03-02T01:23:46;8.10;99.90
18658;DHT22;9458;50.942;5.074;2024-03-02T01:26:13;8.10;99.90
18658;DHT22;9458;50.942;5.074;2024-03-02T01:28:41;8.20;99.90
18658;DHT22;9458;50.942;5.074;2024-03-02T01:31:08;8.10;99.90
18658;DHT22;9458;50.942;5.074;2024-03-02T01:33:35;8.20;99.90
18658;DHT22;9458;50.942;5.074;2024-03-02T01:36:02;8.10;99.90
18658;DHT22;9458;50.942;5.074;2024-03-02T01:38:28;8.20;99.90
18658;DHT22;9458;50.942;5.074;2024-03-02T01:40:56;8.10;99.90
18658;DHT22;9458;50.942;5.074;2024-03-02T01:43:23;7.80;99.90
18658;DHT22;9458;50.942;5.074;2024-03-02T01:45:52;7.80;99.90
18658;DHT22;9458;50.942;5.074;2024-03-02T01:48:19;7.80;99.90
18658;DHT22;9458;50.942;5.074;2024-03-02T01:50:46;7.80;99.90
18658;DHT22;9458;50.942;5.074;2024-03-02T01:53:13;7.90;99.90
18658;DHT22;9458;50.942;5.074;2024-03-02T01:55:39;7.90;99.90
18658;DHT22;9458;50.942;5.074;2024-03-02T01:58:06;8.00;99.90
18658;DHT22;9458;50.942;5.074;2024-03-02T02:00:33;7.90;99.90
18658;DHT22;9458;50.942;5.074;2024-03-02T02:03:01;7.90;99.90
18658;DHT22;9458;50.942;5.074;2024-03-02T02:05:28;7.90;99.90
18658;DHT22;9458;50.942;5.074;2024-03-02T02:07:55;7.80;99.90
18658;DHT22;9458;50.942;5.074;2024-03-02T02:10:23;7.80;99.90
18658;DHT22;9458;50.942;5.074;2024-03-02T02:12:50;7.70;99.90
18658;DHT22;9458;50.942;5.074;2024-03-02T02:15:26;7.70;99.90
18658;DHT22;9458;50.942;5.074;2024-03-02T02:17:53;7.70;99.90
18658;DHT22;9458;50.942;5.074;2024-03-02T02:20:22;7.50;99.90
18658;DHT22;9458;50.942;5.074;2024-03-02T02:22:57;7.60;99.90
18658;DHT22;9458;50.942;5.074;2024-03-02T02:25:24;7.70;99.90
18658;DHT22;9458;50.942;5.074;2024-03-02T02:27:51;7.70;99.90
18658;DHT22;9458;50.942;5.074;2024-03-02T02:30:18;7.80;99.90
18658;DHT22;9458;50.942;5.074;2024-03-02T02:32:45;7.90;99.90
18658;DHT22;9458;50.942;5.074;2024-03-02T02:35:12;7.80;99.90
18658;DHT22;9458;50.942;5.074;2024-03-02T02:37:39;7.70;99.90
18658;DHT22;9458;50.942;5.074;2024-03-02T02:40:08;7.70;99.90
18658;DHT22;9458;50.942;5.074;2024-03-02T02:42:35;7.60;99.90
18658;DHT22;9458;50.942;5.074;2024-03-02T02:45:01;7.50;99.90
18658;DHT22;9458;50.942;5.074;2024-03-02T02:47:29;7.60;99.90
18658;DHT22;9458;50.942;5.074;2024-03-02T02:49:56;7.60;99.90
18658;DHT22;9458;50.942;5.074;2024-03-02T02:52:22;7.60;99.90
18658;DHT22;9458;50.942;5.074;2024-03-02T02:54:49;7.60;99.90
18658;DHT22;9458;50.942;5.074;2024-03-02T02:57:18;7.60;99.90
18658;DHT22;9458;50.942;5.074;2024-03-02T02:59:44;7.50;99.90
18658;DHT22;9458;50.942;5.074;2024-03-02T03:02:11;7.40;99.90
18658;DHT22;9458;50.942;5.074;2024-03-02T03:04:39;7.40;99.90
18658;DHT22;9458;50.942;5.074;2024-03-02T03:07:06;7.50;99.90
18658;DHT22;9458;50.942;5.074;2024-03-02T03:09:33;7.50;99.90
18658;DHT22;9458;50.942;5.074;2024-03-02T03:11:59;7.50;99.90
18658;DHT22;9458;50.942;5.074;2024-03-02T03:14:28;7.50;99.90
18658;DHT22;9458;50.942;5.074;2024-03-02T03:16:55;7.40;99.90
18658;DHT22;9458;50.942;5.074;2024-03-02T03:19:21;7.40;99.90
18658;DHT22;9458;50.942;5.074;2024-03-02T03:21:48;7.50;99.90
18658;DHT22;9458;50.942;5.074;2024-03-02T03:24:15;7.60;99.90
18658;DHT22;9458;50.942;5.074;2024-03-02T03:26:42;7.50;99.90
18658;DHT22;9458;50.942;5.074;2024-03-02T03:29:09;7.60;99.90
18658;DHT22;9458;50.942;5.074;2024-03-02T03:31:37;7.60;99.90
18658;DHT22;9458;50.942;5.074;2024-03-02T03:34:04;7.60;99.90
18658;DHT22;9458;50.942;5.074;2024-03-02T03:36:30;7.40;99.90
18658;DHT22;9458;50.942;5.074;2024-03-02T03:38:57;7.50;99.90
18658;DHT22;9458;50.942;5.074;2024-03-02T03:41:24;7.50;99.90
18658;DHT22;9458;50.942;5.074;2024-03-02T03:43:51;7.60;99.90
18658;DHT22;9458;50.942;5.074;2024-03-02T03:46:17;7.70;99.90
18658;DHT22;9458;50.942;5.074;2024-03-02T03:48:45;7.70;99.90
18658;DHT22;9458;50.942;5.074;2024-03-02T03:51:12;7.70;99.90
18658;DHT22;9458;50.942;5.074;2024-03-02T03:53:39;7.60;99.90
18658;DHT22;9458;50.942;5.074;2024-03-02T03:56:06;7.50;99.90
18658;DHT22;9458;50.942;5.074;2024-03-02T03:58:33;7.50;99.90
18658;DHT22;9458;50.942;5.074;2024-03-02T04:00:59;7.40;99.90
18658;DHT22;9458;50.942;5.074;2024-03-02T04:03:26;7.40;99.90
18658;DHT22;9458;50.942;5.074;2024-03-02T04:05:54;7.40;99.90
18658;DHT22;9458;50.942;5.074;2024-03-02T04:08:21;7.40;99.90
18658;DHT22;9458;50.942;5.074;2024-03-02T04:10:48;7.30;99.90
18658;DHT22;9458;50.942;5.074;2024-03-02T04:13:15;7.20;99.90
18658;DHT22;9458;50.942;5.074;2024-03-02T04:15:41;7.20;99.90
18658;DHT22;9458;50.942;5.074;2024-03-02T04:18:08;7.10;99.90
18658;DHT22;9458;50.942;5.074;2024-03-02T04:20:35;7.10;99.90
18658;DHT22;9458;50.942;5.074;2024-03-02T04:23:03;7.20;99.90
18658;DHT22;9458;50.942;5.074;2024-03-02T04:25:30;7.20;99.90
18658;DHT22;9458;50.942;5.074;2024-03-02T04:27:57;7.30;99.90
18658;DHT22;9458;50.942;5.074;2024-03-02T04:30:24;7.30;99.90
18658;DHT22;9458;50.942;5.074;2024-03-02T04:32:51;7.30;99.90
18658;DHT22;9458;50.942;5.074;2024-03-02T04:35:18;7.30;99.90
18658;DHT22;9458;50.942;5.074;2024-03-02T04:37:45;7.30;99.90
18658;DHT22;9458;50.942;5.074;2024-03-02T04:40:13;7.30;99.90
18658;DHT22;9458;50.942;5.074;2024-03-02T04:42:40;7.20;99.90
18658;DHT22;9458;50.942;5.074;2024-03-02T04:45:07;7.10;99.90
18658;DHT22;9458;50.942;5.074;2024-03-02T04:47:34;7.10;99.90
18658;DHT22;9458;50.942;5.074;2024-03-02T04:50:00;7.10;99.90
18658;DHT22;9458;50.942;5.074;2024-03-02T04:52:27;7.10;99.90
18658;DHT22;9458;50.942;5.074;2024-03-02T04:54:54;7.00;99.90
18658;DHT22;9458;50.942;5.074;2024-03-02T04:57:51;7.00;99.90
18658;DHT22;9458;50.942;5.074;2024-03-02T05:00:20;7.00;99.90
18658;DHT22;9458;50.942;5.074;2024-03-02T05:02:46;6.90;99.90
18658;DHT22;9458;50.942;5.074;2024-03-02T05:05:13;6.80;99.90
18658;DHT22;9458;50.942;5.074;2024-03-02T05:07:40;6.80;99.90
18658;DHT22;9458;50.942;5.074;2024-03-02T05:10:09;6.70;99.90
18658;DHT22;9458;50.942;5.074;2024-03-02T05:12:37;6.70;99.90
18658;DHT22;9458;50.942;5.074;2024-03-02T05:15:23;6.70;99.90
18658;DHT22;9458;50.942;5.074;2024-03-02T05:17:50;6.70;99.90
18658;DHT22;9458;50.942;5.074;2024-03-02T05:20:18;6.70;99.90
18658;DHT22;9458;50.942;5.074;2024-03-02T05:22:45;6.80;99.90
18658;DHT22;9458;50.942;5.074;2024-03-02T05:25:12;6.80;99.90
18658;DHT22;9458;50.942;5.074;2024-03-02T05:27:39;6.80;99.90
18658;DHT22;9458;50.942;5.074;2024-03-02T05:30:06;6.80;99.90
18658;DHT22;9458;50.942;5.074;2024-03-02T05:32:36;6.80;99.90
18658;DHT22;9458;50.942;5.074;2024-03-02T05:35:02;6.70;99.90
18658;DHT22;9458;50.942;5.074;2024-03-02T05:37:30;6.70;99.90
18658;DHT22;9458;50.942;5.074;2024-03-02T05:39:57;6.70;99.90
18658;DHT22;9458;50.942;5.074;2024-03-02T05:42:24;6.60;99.90
18658;DHT22;9458;50.942;5.074;2024-03-02T05:44:52;6.60;99.90
18658;DHT22;9458;50.942;5.074;2024-03-02T05:47:19;6.50;99.90
18658;DHT22;9458;50.942;5.074;2024-03-02T05:49:47;6.50;99.90
18658;DHT22;9458;50.942;5.074;2024-03-02T05:52:14;6.50;99.90
18658;DHT22;9458;50.942;5.074;2024-03-02T05:54:41;6.60;99.90
18658;DHT22;9458;50.942;5.074;2024-03-02T05:57:08;6.60;99.90
18658;DHT22;9458;50.942;5.074;2024-03-02T05:59:57;6.60;99.90
18658;DHT22;9458;50.942;5.074;2024-03-02T06:02:24;6.60;99.90
18658;DHT22;9458;50.942;5.074;2024-03-02T06:04:52;6.60;99.90
18658;DHT22;9458;50.942;5.074;2024-03-02T06:07:19;6.70;99.90
18658;DHT22;9458;50.942;5.074;2024-03-02T06:09:46;6.70;99.90
18658;DHT22;9458;50.942;5.074;2024-03-02T06:12:16;6.60;99.90
18658;DHT22;9458;50.942;5.074;2024-03-02T06:14:43;6.50;99.90
18658;DHT22;9458;50.942;5.074;2024-03-02T06:17:09;6.50;99.90
18658;DHT22;9458;50.942;5.074;2024-03-02T06:19:36;6.60;99.90
18658;DHT22;9458;50.942;5.074;2024-03-02T06:22:05;6.60;99.90
18658;DHT22;9458;50.942;5.074;2024-03-02T06:24:35;6.50;99.90
18658;DHT22;9458;50.942;5.074;2024-03-02T06:27:02;6.50;99.90
18658;DHT22;9458;50.942;5.074;2024-03-02T06:29:29;6.50;99.90
18658;DHT22;9458;50.942;5.074;2024-03-02T06:31:56;6.50;99.90
18658;DHT22;9458;50.942;5.074;2024-03-02T06:34:23;6.60;99.90
18658;DHT22;9458;50.942;5.074;2024-03-02T06:36:50;6.60;99.90
18658;DHT22;9458;50.942;5.074;2024-03-02T06:39:18;6.70;99.90
18658;DHT22;9458;50.942;5.074;2024-03-02T06:41:45;6.70;99.90
18658;DHT22;9458;50.942;5.074;2024-03-02T06:44:12;6.70;99.90
18658;DHT22;9458;50.942;5.074;2024-03-02T06:46:39;6.70;99.90
18658;DHT22;9458;50.942;5.074;2024-03-02T06:49:06;7.00;99.90
18658;DHT22;9458;50.942;5.074;2024-03-02T06:51:35;7.50;99.90
18658;DHT22;9458;50.942;5.074;2024-03-02T06:54:03;7.90;99.90
18658;DHT22;9458;50.942;5.074;2024-03-02T06:56:32;8.50;99.90
18658;DHT22;9458;50.942;5.074;2024-03-02T06:58:59;8.50;99.90
18658;DHT22;9458;50.942;5.074;2024-03-02T07:01:26;8.10;99.90
18658;DHT22;9458;50.942;5.074;2024-03-02T07:03:53;7.70;99.90
18658;DHT22;9458;50.942;5.074;2024-03-02T07:06:20;7.40;99.90
18658;DHT22;9458;50.942;5.074;2024-03-02T07:08:46;7.30;99.90
18658;DHT22;9458;50.942;5.074;2024-03-02T07:11:13;7.20;99.90
18658;DHT22;9458;50.942;5.074;2024-03-02T07:13:42;7.10;99.90
18658;DHT22;9458;50.942;5.074;2024-03-02T07:16:09;7.00;99.90
18658;DHT22;9458;50.942;5.074;2024-03-02T07:18:52;7.10;99.90
18658;DHT22;9458;50.942;5.074;2024-03-02T07:21:20;7.20;99.90
18658;DHT22;9458;50.942;5.074;2024-03-02T07:23:47;7.10;99.90
18658;DHT22;9458;50.942;5.074;2024-03-02T07:26:14;7.10;99.90
18658;DHT22;9458;50.942;5.074;2024-03-02T07:28:43;7.10;99.90
18658;DHT22;9458;50.942;5.074;2024-03-02T07:31:10;7.20;99.90
18658;DHT22;9458;50.942;5.074;2024-03-02T07:33:37;7.50;99.90
18658;DHT22;9458;50.942;5.074;2024-03-02T07:36:04;8.30;99.90
18658;DHT22;9458;50.942;5.074;2024-03-02T07:38:31;9.70;99.90
18658;DHT22;9458;50.942;5.074;2024-03-02T07:40:59;10.80;99.90
18658;DHT22;9458;50.942;5.074;2024-03-02T07:43:26;11.60;99.90
18658;DHT22;9458;50.942;5.074;2024-03-02T07:45:55;11.90;99.90
18658;DHT22;9458;50.942;5.074;2024-03-02T07:48:22;12.40;99.90
18658;DHT22;9458;50.942;5.074;2024-03-02T07:50:49;13.10;99.90
18658;DHT22;9458;50.942;5.074;2024-03-02T07:53:15;13.30;99.90
18658;DHT22;9458;50.942;5.074;2024-03-02T07:55:42;13.00;99.90
18658;DHT22;9458;50.942;5.074;2024-03-02T07:58:09;12.10;99.90
18658;DHT22;9458;50.942;5.074;2024-03-02T08:00:38;11.90;99.90
18658;DHT22;9458;50.942;5.074;2024-03-02T08:03:06;12.20;99.90
18658;DHT22;9458;50.942;5.074;2024-03-02T08:05:36;12.40;99.90
18658;DHT22;9458;50.942;5.074;2024-03-02T08:08:03;12.90;99.90
18658;DHT22;9458;50.942;5.074;2024-03-02T08:10:30;13.50;99.90
18658;DHT22;9458;50.942;5.074;2024-03-02T08:12:59;13.60;99.90
18658;DHT22;9458;50.942;5.074;2024-03-02T08:15:25;13.70;99.90
18658;DHT22;9458;50.942;5.074;2024-03-02T08:17:52;13.30;99.90
18658;DHT22;9458;50.942;5.074;2024-03-02T08:20:20;13.00;99.90
18658;DHT22;9458;50.942;5.074;2024-03-02T08:22:47;12.80;99.90
18658;DHT22;9458;50.942;5.074;2024-03-02T08:25:14;13.20;99.90
18658;DHT22;9458;50.942;5.074;2024-03-02T08:27:41;13.20;99.90
18658;DHT22;9458;50.942;5.074;2024-03-02T08:30:08;13.80;99.90
18658;DHT22;9458;50.942;5.074;2024-03-02T08:32:36;13.80;99.90
18658;DHT22;9458;50.942;5.074;2024-03-02T08:35:03;14.20;99.90
18658;DHT22;9458;50.942;5.074;2024-03-02T08:37:31;14.70;99.90
18658;DHT22;9458;50.942;5.074;2024-03-02T08:39:58;14.40;99.90
18658;DHT22;9458;50.942;5.074;2024-03-02T08:42:26;13.90;99.90
18658;DHT22;9458;50.942;5.074;2024-03-02T08:44:53;14.60;99.90
18658;DHT22;9458;50.942;5.074;2024-03-02T08:47:20;14.70;99.90
18658;DHT22;9458;50.942;5.074;2024-03-02T08:49:47;14.30;99.90
18658;DHT22;9458;50.942;5.074;2024-03-02T08:52:14;13.30;99.90
18658;DHT22;9458;50.942;5.074;2024-03-02T08:54:42;13.10;99.90
18658;DHT22;9458;50.942;5.074;2024-03-02T08:57:09;13.20;99.90
18658;DHT22;9458;50.942;5.074;2024-03-02T08:59:36;13.80;99.90
18658;DHT22;9458;50.942;5.074;2024-03-02T09:02:03;14.00;99.90
18658;DHT22;9458;50.942;5.074;2024-03-02T09:04:30;14.40;99.90
18658;DHT22;9458;50.942;5.074;2024-03-02T09:06:57;14.30;99.90
18658;DHT22;9458;50.942;5.074;2024-03-02T09:09:24;14.60;99.90
18658;DHT22;9458;50.942;5.074;2024-03-02T09:11:52;15.00;99.90
18658;DHT22;9458;50.942;5.074;2024-03-02T09:14:20;14.60;99.90
18658;DHT22;9458;50.942;5.074;2024-03-02T09:16:47;14.20;99.90
18658;DHT22;9458;50.942;5.074;2024-03-02T09:19:13;14.00;99.90
18658;DHT22;9458;50.942;5.074;2024-03-02T09:21:41;13.80;99.90
18658;DHT22;9458;50.942;5.074;2024-03-02T09:24:09;13.00;99.90
18658;DHT22;9458;50.942;5.074;2024-03-02T09:26:36;13.10;99.90
18658;DHT22;9458;50.942;5.074;2024-03-02T09:29:05;12.80;99.90
18658;DHT22;9458;50.942;5.074;2024-03-02T09:31:31;12.90;99.90
18658;DHT22;9458;50.942;5.074;2024-03-02T09:33:58;13.30;99.90
18658;DHT22;9458;50.942;5.074;2024-03-02T09:36:25;13.60;99.90
18658;DHT22;9458;50.942;5.074;2024-03-02T09:38:52;13.50;99.90
18658;DHT22;9458;50.942;5.074;2024-03-02T09:41:19;13.80;99.90
18658;DHT22;9458;50.942;5.074;2024-03-02T09:43:46;13.20;99.90
18658;DHT22;9458;50.942;5.074;2024-03-02T09:46:14;13.40;99.90
18658;DHT22;9458;50.942;5.074;2024-03-02T09:48:41;13.80;99.90
18658;DHT22;9458;50.942;5.074;2024-03-02T09:51:10;13.10;99.90
18658;DHT22;9458;50.942;5.074;2024-03-02T09:53:37;13.00;99.90
18658;DHT22;9458;50.942;5.074;2024-03-02T09:56:04;12.90;99.90
18658;DHT22;9458;50.942;5.074;2024-03-02T09:58:31;13.10;99.90
18658;DHT22;9458;50.942;5.074;2024-03-02T10:00:58;13.50;99.90
18658;DHT22;9458;50.942;5.074;2024-03-02T10:03:26;13.60;99.90
18658;DHT22;9458;50.942;5.074;2024-03-02T10:05:54;13.40;99.90
18658;DHT22;9458;50.942;5.074;2024-03-02T10:08:21;13.20;99.90
18658;DHT22;9458;50.942;5.074;2024-03-02T10:10:48;13.20;99.90
18658;DHT22;9458;50.942;5.074;2024-03-02T10:13:15;12.90;99.90
18658;DHT22;9458;50.942;5.074;2024-03-02T10:15:44;12.90;99.90
18658;DHT22;9458;50.942;5.074;2024-03-02T10:18:12;12.90;99.90
18658;DHT22;9458;50.942;5.074;2024-03-02T10:20:42;12.50;99.90
18658;DHT22;9458;50.942;5.074;2024-03-02T10:23:09;12.20;99.90
18658;DHT22;9458;50.942;5.074;2024-03-02T10:25:37;12.30;99.90
18658;DHT22;9458;50.942;5.074;2024-03-02T10:28:04;12.60;99.90
18658;DHT22;9458;50.942;5.074;2024-03-02T10:30:32;12.60;99.90
18658;DHT22;9458;50.942;5.074;2024-03-02T10:32:59;12.60;99.90
18658;DHT22;9458;50.942;5.074;2024-03-02T10:35:27;12.60;99.90
18658;DHT22;9458;50.942;5.074;2024-03-02T10:37:56;12.60;99.90
18658;DHT22;9458;50.942;5.074;2024-03-02T10:40:26;12.40;99.90
18658;DHT22;9458;50.942;5.074;2024-03-02T10:42:53;12.50;99.90
18658;DHT22;9458;50.942;5.074;2024-03-02T10:45:21;12.40;99.90
18658;DHT22;9458;50.942;5.074;2024-03-02T10:47:49;12.60;99.90
18658;DHT22;9458;50.942;5.074;2024-03-02T10:50:16;12.50;99.90
18658;DHT22;9458;50.942;5.074;2024-03-02T10:52:46;12.40;99.90
18658;DHT22;9458;50.942;5.074;2024-03-02T10:55:15;12.40;99.90
18658;DHT22;9458;50.942;5.074;2024-03-02T10:57:42;12.40;99.90
18658;DHT22;9458;50.942;5.074;2024-03-02T11:00:12;12.20;99.90
18658;DHT22;9458;50.942;5.074;2024-03-02T11:02:42;12.40;99.90
18658;DHT22;9458;50.942;5.074;2024-03-02T11:05:13;12.40;99.90
18658;DHT22;9458;50.942;5.074;2024-03-02T11:07:43;12.40;99.90
18658;DHT22;9458;50.942;5.074;2024-03-02T11:10:10;12.70;99.90
18658;DHT22;9458;50.942;5.074;2024-03-02T11:12:42;12.70;99.90
18658;DHT22;9458;50.942;5.074;2024-03-02T11:15:10;12.70;99.90
18658;DHT22;9458;50.942;5.074;2024-03-02T11:17:38;12.80;99.90
18658;DHT22;9458;50.942;5.074;2024-03-02T11:20:06;12.70;99.90
18658;DHT22;9458;50.942;5.074;2024-03-02T11:22:34;12.60;99.90
18658;DHT22;9458;50.942;5.074;2024-03-02T11:25:02;12.70;99.90
18658;DHT22;9458;50.942;5.074;2024-03-02T11:33:11;12.70;99.90
18658;DHT22;9458;50.942;5.074;2024-03-02T11:35:40;12.70;99.90
18658;DHT22;9458;50.942;5.074;2024-03-02T11:38:08;12.90;99.90
18658;DHT22;9458;50.942;5.074;2024-03-02T11:40:35;13.00;99.90
18658;DHT22;9458;50.942;5.074;2024-03-02T11:43:03;12.90;99.90
18658;DHT22;9458;50.942;5.074;2024-03-02T11:45:33;12.80;99.90
18658;DHT22;9458;50.942;5.074;2024-03-02T11:48:00;12.90;99.90
18658;DHT22;9458;50.942;5.074;2024-03-02T11:50:30;12.80;99.90
18658;DHT22;9458;50.942;5.074;2024-03-02T11:53:06;12.80;99.90
18658;DHT22;9458;50.942;5.074;2024-03-02T11:55:34;12.90;99.90
18658;DHT22;9458;50.942;5.074;2024-03-02T11:58:05;12.90;99.90
18658;DHT22;9458;50.942;5.074;2024-03-02T12:00:34;13.00;99.90
18658;DHT22;9458;50.942;5.074;2024-03-02T12:03:02;13.00;99.90
18658;DHT22;9458;50.942;5.074;2024-03-02T12:05:31;13.00;99.90
18658;DHT22;9458;50.942;5.074;2024-03-02T12:07:59;13.00;99.90
18658;DHT22;9458;50.942;5.074;2024-03-02T12:10:27;13.10;99.90
18658;DHT22;9458;50.942;5.074;2024-03-02T12:12:55;12.90;99.90
18658;DHT22;9458;50.942;5.074;2024-03-02T12:15:23;12.90;99.90
18658;DHT22;9458;50.942;5.074;2024-03-02T12:17:52;12.90;99.90
18658;DHT22;9458;50.942;5.074;2024-03-02T12:20:20;13.00;99.90
18658;DHT22;9458;50.942;5.074;2024-03-02T12:22:50;13.20;99.90
18658;DHT22;9458;50.942;5.074;2024-03-02T12:25:20;13.30;99.90
18658;DHT22;9458;50.942;5.074;2024-03-02T12:27:48;13.20;99.90
18658;DHT22;9458;50.942;5.074;2024-03-02T12:30:16;13.40;99.90
18658;DHT22;9458;50.942;5.074;2024-03-02T12:32:43;13.30;99.90
18658;DHT22;9458;50.942;5.074;2024-03-02T12:35:10;13.10;99.90
18658;DHT22;9458;50.942;5.074;2024-03-02T12:37:43;13.20;99.90
18658;DHT22;9458;50.942;5.074;2024-03-02T12:40:12;13.30;99.90
18658;DHT22;9458;50.942;5.074;2024-03-02T12:42:39;13.40;99.90
18658;DHT22;9458;50.942;5.074;2024-03-02T12:45:11;13.40;99.90
18658;DHT22;9458;50.942;5.074;2024-03-02T12:47:39;13.30;99.90
18658;DHT22;9458;50.942;5.074;2024-03-02T12:50:06;13.20;99.90
18658;DHT22;9458;50.942;5.074;2024-03-02T12:52:34;13.10;99.90
18658;DHT22;9458;50.942;5.074;2024-03-02T12:55:02;13.10;99.90
18658;DHT22;9458;50.942;5.074;2024-03-02T12:57:32;13.10;99.90
18658;DHT22;9458;50.942;5.074;2024-03-02T12:59:59;13.20;99.90
18658;DHT22;9458;50.942;5.074;2024-03-02T13:02:30;13.30;99.90
18658;DHT22;9458;50.942;5.074;2024-03-02T13:04:57;13.30;99.90
18658;DHT22;9458;50.942;5.074;2024-03-02T13:07:25;13.20;99.90
18658;DHT22;9458;50.942;5.074;2024-03-02T13:09:52;13.20;99.90
18658;DHT22;9458;50.942;5.074;2024-03-02T13:12:21;13.30;99.90
18658;DHT22;9458;50.942;5.074;2024-03-02T13:14:49;13.40;99.90
18658;DHT22;9458;50.942;5.074;2024-03-02T13:17:18;13.60;99.90
18658;DHT22;9458;50.942;5.074;2024-03-02T13:19:51;13.60;99.90
18658;DHT22;9458;50.942;5.074;2024-03-02T13:22:20;13.70;99.90
18658;DHT22;9458;50.942;5.074;2024-03-02T13:24:49;14.00;99.90
18658;DHT22;9458;50.942;5.074;2024-03-02T13:27:16;14.10;99.90
18658;DHT22;9458;50.942;5.074;2024-03-02T13:29:45;14.10;99.90
18658;DHT22;9458;50.942;5.074;2024-03-02T13:32:13;14.20;99.90
18658;DHT22;9458;50.942;5.074;2024-03-02T13:34:40;14.20;99.90
18658;DHT22;9458;50.942;5.074;2024-03-02T13:37:07;14.30;99.90
18658;DHT22;9458;50.942;5.074;2024-03-02T13:39:34;14.40;99.90
18658;DHT22;9458;50.942;5.074;2024-03-02T13:42:06;14.40;99.90
18658;DHT22;9458;50.942;5.074;2024-03-02T13:44:33;14.40;99.90
18658;DHT22;9458;50.942;5.074;2024-03-02T13:47:00;14.40;99.90
18658;DHT22;9458;50.942;5.074;2024-03-02T13:49:29;14.50;99.90
18658;DHT22;9458;50.942;5.074;2024-03-02T13:52:01;14.60;99.90
18658;DHT22;9458;50.942;5.074;2024-03-02T13:54:36;14.40;99.90
18658;DHT22;9458;50.942;5.074;2024-03-02T13:57:03;14.60;99.90
18658;DHT22;9458;50.942;5.074;2024-03-02T13:59:31;14.50;99.90
18658;DHT22;9458;50.942;5.074;2024-03-02T14:02:00;14.20;99.90
18658;DHT22;9458;50.942;5.074;2024-03-02T14:04:29;14.20;99.90
18658;DHT22;9458;50.942;5.074;2024-03-02T14:06:56;14.20;99.90
18658;DHT22;9458;50.942;5.074;2024-03-02T14:09:22;14.20;99.90
18658;DHT22;9458;50.942;5.074;2024-03-02T14:11:49;14.30;99.90
18658;DHT22;9458;50.942;5.074;2024-03-02T14:14:16;14.20;99.90
18658;DHT22;9458;50.942;5.074;2024-03-02T14:16:43;14.00;99.90
18658;DHT22;9458;50.942;5.074;2024-03-02T14:19:10;14.00;99.90
18658;DHT22;9458;50.942;5.074;2024-03-02T14:21:38;13.90;99.90
18658;DHT22;9458;50.942;5.074;2024-03-02T14:24:05;13.90;99.90
18658;DHT22;9458;50.942;5.074;2024-03-02T14:26:33;13.80;99.90
18658;DHT22;9458;50.942;5.074;2024-03-02T14:29:00;13.90;99.90
18658;DHT22;9458;50.942;5.074;2024-03-02T14:31:27;14.00;99.90
18658;DHT22;9458;50.942;5.074;2024-03-02T14:33:55;14.00;99.90
18658;DHT22;9458;50.942;5.074;2024-03-02T14:36:22;13.90;99.90
18658;DHT22;9458;50.942;5.074;2024-03-02T14:38:51;13.80;99.90
18658;DHT22;9458;50.942;5.074;2024-03-02T14:41:18;13.80;99.90
18658;DHT22;9458;50.942;5.074;2024-03-02T14:43:44;13.70;99.90
18658;DHT22;9458;50.942;5.074;2024-03-02T14:46:11;13.70;99.90
18658;DHT22;9458;50.942;5.074;2024-03-02T14:48:38;13.70;99.90
18658;DHT22;9458;50.942;5.074;2024-03-02T14:51:05;13.50;99.90
18658;DHT22;9458;50.942;5.074;2024-03-02T14:53:32;13.50;99.90
18658;DHT22;9458;50.942;5.074;2024-03-02T14:56:00;13.40;99.90
18658;DHT22;9458;50.942;5.074;2024-03-02T14:58:27;13.30;99.90
18658;DHT22;9458;50.942;5.074;2024-03-02T15:00:54;13.20;99.90
18658;DHT22;9458;50.942;5.074;2024-03-02T15:03:21;13.20;99.90
18658;DHT22;9458;50.942;5.074;2024-03-02T15:05:48;13.10;99.90
18658;DHT22;9458;50.942;5.074;2024-03-02T15:08:17;13.00;99.90
18658;DHT22;9458;50.942;5.074;2024-03-02T15:10:44;13.10;99.90
18658;DHT22;9458;50.942;5.074;2024-03-02T15:13:12;13.10;99.90
18658;DHT22;9458;50.942;5.074;2024-03-02T15:15:39;13.10;99.90
18658;DHT22;9458;50.942;5.074;2024-03-02T15:18:15;13.20;99.90
18658;DHT22;9458;50.942;5.074;2024-03-02T15:20:45;13.20;99.90
18658;DHT22;9458;50.942;5.074;2024-03-02T15:23:12;13.20;99.90
18658;DHT22;9458;50.942;5.074;2024-03-02T15:25:39;13.30;99.90
18658;DHT22;9458;50.942;5.074;2024-03-02T15:28:06;13.30;99.90
18658;DHT22;9458;50.942;5.074;2024-03-02T15:30:51;13.20;99.90
18658;DHT22;9458;50.942;5.074;2024-03-02T15:33:18;13.20;99.90
18658;DHT22;9458;50.942;5.074;2024-03-02T15:35:46;13.20;99.90
18658;DHT22;9458;50.942;5.074;2024-03-02T15:38:13;13.20;99.90
18658;DHT22;9458;50.942;5.074;2024-03-02T15:40:42;13.10;99.90
18658;DHT22;9458;50.942;5.074;2024-03-02T15:43:10;13.10;99.90
18658;DHT22;9458;50.942;5.074;2024-03-02T15:45:37;13.20;99.90
18658;DHT22;9458;50.942;5.074;2024-03-02T15:48:06;13.20;99.90
18658;DHT22;9458;50.942;5.074;2024-03-02T15:50:33;13.20;99.90
18658;DHT22;9458;50.942;5.074;2024-03-02T15:53:02;13.10;99.90
18658;DHT22;9458;50.942;5.074;2024-03-02T15:55:31;13.10;99.90
18658;DHT22;9458;50.942;5.074;2024-03-02T15:57:59;13.10;99.90
18658;DHT22;9458;50.942;5.074;2024-03-02T16:00:29;13.00;99.90